• Join FlightAware (Why Join?)
  • Login
  • US Flag 
12:35PM EST


 

Airport Tracker/Info


-or-


 

Live Flight TrackerFlight Track Log ✈ SWA914 ✈ 27-Apr-2013 ✈ KSAN - KRNO

Flight Track Log - Related Links

Times and Time Zones

All times are in EDT time to prevent confusion due to time zone crossing. See the SWA914 flight status page for this flight to view local times or setup timezone preferences in your user account.

Time Position Orientation Groundspeed Altitude Reporting Facility
EDT Latitude Longitude Course Direction KTS MPH feet Rate Location/Type
01:15PM 32.7439 -117.2178 302° West 203 234 1,200  Level Los Angeles Center
01:16PM 32.7733 -117.2728 302° West 197 227 3,500 2,855 Climbing Los Angeles Center
01:17PM 32.8161 -117.3561 301° West 259 298 7,100 3,726 Climbing Los Angeles Center
01:18PM 32.8594 -117.4358 303° West 283 326 11,200 3,387 Climbing Los Angeles Center
01:19PM 32.9208 -117.5200 311° West 331 381 14,100 1,839 Climbing Los Angeles Center
01:20PM 33.0017 -117.5806 328° Northwest 346 398 15,000 1,344 Climbing Los Angeles Center
01:21PM 33.0706 -117.6642 315° West 357 411 16,900 1,935 Climbing Los Angeles Center
01:23PM 33.2108 -117.8814 308° West 377 434 21,000 1,677 Climbing Los Angeles Center
01:24PM 33.2808 -117.9817 310° West 391 450 22,100 1,824 Climbing Los Angeles Center
01:25PM 33.3539 -118.0819 311° West 399 459 24,800 2,565 Climbing Los Angeles Center
01:26PM 33.4553 -118.1392 335° Northwest 412 474 27,400 2,516 Climbing Los Angeles Center
01:27PM 33.5908 -118.1789 346° North 420 483 30,000 2,129 Climbing Los Angeles Center
01:28PM 33.7067 -118.2136 346° North 435 501 31,800 1,742 Climbing Los Angeles Center
01:29PM 33.8197 -118.2483 346° North 440 506 33,600 2,177 Climbing Los Angeles Center
01:30PM 33.9603 -118.2908 346° North 438 504 36,300 2,129 Climbing Los Angeles Center
01:31PM 34.0719 -118.3258 345° North 422 486 38,000 1,358 Climbing Los Angeles Center
01:32PM 34.2058 -118.3667 346° North 416 479 39,400 876 Climbing Los Angeles Center
01:34PM 34.3208 -118.4019 346° North 425 489 40,000 290 Climbing Los Angeles Center
01:35PM 34.4383 -118.4386 346° North 435 501 40,000  Level Los Angeles Center
01:36PM 34.5556 -118.4758 345° North 436 502 40,000  Level Los Angeles Center
01:37PM 34.6969 -118.5181 346° North 436 502 40,000  Level Los Angeles Center
01:38PM 34.8139 -118.5553 345° North 437 503 40,000  Level Los Angeles Center
01:39PM 34.9231 -118.5897 345° North 434 499 40,000  Level Los Angeles Center
01:40PM 35.0653 -118.6233 349° North 434 499 40,000  Level Los Angeles Center
01:41PM 35.1844 -118.6472 351° North 435 501 40,000  Level Los Angeles Center
01:42PM 35.3031 -118.6736 350° North 435 501 40,000  Level Los Angeles Center
01:43PM 35.4219 -118.6994 350° North 435 501 40,000  Level Los Angeles Center
01:44PM 35.5369 -118.7250 350° North 427 491 40,000  Level Los Angeles Center
01:45PM 35.6781 -118.7561 350° North 429 494 40,000  Level Los Angeles Center
01:46PM 35.7733 -118.7764 350° North 431 496 40,000  Level Oakland Center
01:47PM 35.8917 -118.8031 350° North 433 498 40,000  Level Oakland Center
01:48PM 36.0094 -118.8297 350° North 432 497 40,000  Level Oakland Center
01:49PM 36.1269 -118.8550 350° North 430 495 40,000 -585 Level Oakland Center
01:50PM 36.2664 -118.8869 350° North 428 493 38,800 -984 Descending Oakland Center
01:51PM 36.3822 -118.9133 350° North 424 488 38,000 -390 Descending Oakland Center
01:52PM 36.4969 -118.9397 350° North 422 486 38,000  Level Oakland Center
01:53PM 36.6103 -118.9658 350° North 417 480 38,000 -443 Level Oakland Center
01:54PM 36.7275 -118.9925 350° North 427 491 37,100 -927 Descending Oakland Center
01:55PM 36.8436 -119.0197 349° North 421 484 36,100 -537 Descending Oakland Center
01:56PM 36.9569 -119.0453 350° North 417 480 36,000 -49 Descending Oakland Center
01:57PM 37.0719 -119.0742 349° North 423 487 36,000 -537 Level Oakland Center
01:58PM 37.2092 -119.1069 349° North 435 501 34,900 -1,082 Descending Oakland Center
01:59PM 37.3203 -119.1333 349° North 412 474 33,800 -1,024 Descending Oakland Center
02:00PM 37.4283 -119.1542 351° North 414 476 32,800 -878 Descending Oakland Center
02:01PM 37.5419 -119.1811 349° North 413 475 32,000 -780 Descending Oakland Center
02:02PM 37.6533 -119.2047 350° North 417 480 31,200 -878 Descending Oakland Center
02:03PM 37.7706 -119.2328 349° North 426 490 30,200 -585 Descending Oakland Center
02:04PM 37.8878 -119.2594 350° North 427 491 30,000 -98 Descending Oakland Center
02:05PM 38.0292 -119.2939 349° North 431 496 30,000  Level Oakland Center
02:06PM 38.1483 -119.3214 350° North 428 493 30,000 -439 Level Oakland Center
02:07PM 38.2667 -119.3492 350° North 430 495 29,100 -976 Descending Oakland Center
02:08PM 38.3856 -119.3764 350° North 433 498 28,000 -1,073 Descending Oakland Center
02:09PM 38.4989 -119.4058 349° North 421 484 26,900 -1,033 Descending Oakland Center
02:10PM 38.6086 -119.4308 350° North 405 466 25,900 -976 Descending Oakland Center
02:11PM 38.7172 -119.4578 349° North 396 456 24,900 -976 Descending Oakland Center
02:12PM 38.8233 -119.4836 349° North 390 449 23,900 -976 Descending Oakland Center
02:13PM 38.9269 -119.5081 350° North 380 437 22,900 -976 Descending Oakland Center
02:14PM 39.0306 -119.5325 350° North 376 433 21,900 -1,561 Descending Oakland Center
02:15PM 39.1542 -119.5636 349° North 377 434 19,700 -1,902 Descending Oakland Center
02:16PM 39.2542 -119.5872 350° North 368 423 18,000 -1,854 Descending Oakland Center
02:18PM 39.3486 -119.6097 350° North 352 405 15,900 -2,098 Descending Oakland Center
02:19PM 39.4403 -119.6253 353° North 338 389 13,700 -1,610 Descending Oakland Center
02:20PM 39.5278 -119.6364 354° North 325 374 12,600 -1,286 Descending Oakland Center
02:21PM 39.6167 -119.6500 353° North 263 303 11,000 -1,742 Descending Northern Cal TRACON
02:22PM 39.6833 -119.6500 360° North 260 299 9,000 -1,750 Descending Northern Cal TRACON
02:23PM 39.6833 -119.7167 270° West 211 243 7,500 -1,100 Descending Northern Cal TRACON
02:24PM 39.6333 -119.7667 218° Southwest 193 222 6,800 -700 Descending Northern Cal TRACON
02:25PM 39.5833 -119.7667 180° South 176 203 6,100 -783 Descending Northern Cal TRACON
02:26PM 39.5500 -119.7667 180° South 158 182 5,300 -873 Descending Northern Cal TRACON